sensor_id;sensor_type;location;lat;lon;timestamp;P1;durP1;ratioP1;P2;durP2;ratioP2
5349;SDS011;2697;42.144;24.794;2023-05-10T00:00:21;7.47;;;3.67;;
5349;SDS011;2697;42.144;24.794;2023-05-10T00:02:48;7.40;;;3.73;;
5349;SDS011;2697;42.144;24.794;2023-05-10T00:05:14;7.90;;;2.70;;
5349;SDS011;2697;42.144;24.794;2023-05-10T00:07:39;8.23;;;2.80;;
5349;SDS011;2697;42.144;24.794;2023-05-10T00:10:05;6.90;;;4.33;;
5349;SDS011;2697;42.144;24.794;2023-05-10T00:12:31;19.63;;;5.27;;
5349;SDS011;2697;42.144;24.794;2023-05-10T00:14:56;13.40;;;4.50;;
5349;SDS011;2697;42.144;24.794;2023-05-10T00:17:22;20.50;;;4.20;;
5349;SDS011;2697;42.144;24.794;2023-05-10T00:19:47;9.90;;;4.17;;
5349;SDS011;2697;42.144;24.794;2023-05-10T00:22:13;12.57;;;5.47;;
5349;SDS011;2697;42.144;24.794;2023-05-10T00:24:38;6.10;;;4.10;;
5349;SDS011;2697;42.144;24.794;2023-05-10T00:27:04;5.80;;;4.37;;
5349;SDS011;2697;42.144;24.794;2023-05-10T00:29:29;9.93;;;5.30;;
5349;SDS011;2697;42.144;24.794;2023-05-10T00:31:54;6.90;;;4.53;;
5349;SDS011;2697;42.144;24.794;2023-05-10T00:34:20;14.23;;;5.50;;
5349;SDS011;2697;42.144;24.794;2023-05-10T00:36:45;14.60;;;5.80;;
5349;SDS011;2697;42.144;24.794;2023-05-10T00:39:11;12.07;;;5.07;;
5349;SDS011;2697;42.144;24.794;2023-05-10T00:41:37;7.27;;;3.30;;
5349;SDS011;2697;42.144;24.794;2023-05-10T00:44:02;12.77;;;6.13;;
5349;SDS011;2697;42.144;24.794;2023-05-10T00:46:29;5.40;;;3.60;;
5349;SDS011;2697;42.144;24.794;2023-05-10T00:48:54;11.33;;;4.93;;
5349;SDS011;2697;42.144;24.794;2023-05-10T00:51:20;6.87;;;3.87;;
5349;SDS011;2697;42.144;24.794;2023-05-10T00:53:45;15.00;;;5.90;;
5349;SDS011;2697;42.144;24.794;2023-05-10T00:56:11;12.33;;;5.33;;
5349;SDS011;2697;42.144;24.794;2023-05-10T00:58:37;13.83;;;5.80;;
5349;SDS011;2697;42.144;24.794;2023-05-10T01:01:03;12.50;;;6.70;;
5349;SDS011;2697;42.144;24.794;2023-05-10T01:03:30;35.47;;;6.20;;
5349;SDS011;2697;42.144;24.794;2023-05-10T01:05:57;16.83;;;6.20;;
5349;SDS011;2697;42.144;24.794;2023-05-10T01:08:22;10.77;;;6.33;;
5349;SDS011;2697;42.144;24.794;2023-05-10T01:10:48;6.73;;;6.03;;
5349;SDS011;2697;42.144;24.794;2023-05-10T01:13:18;9.57;;;6.00;;
5349;SDS011;2697;42.144;24.794;2023-05-10T01:15:55;11.87;;;5.60;;
5349;SDS011;2697;42.144;24.794;2023-05-10T01:18:21;12.13;;;5.60;;
5349;SDS011;2697;42.144;24.794;2023-05-10T01:20:47;7.90;;;5.27;;
5349;SDS011;2697;42.144;24.794;2023-05-10T01:34:27;9.17;;;5.87;;
5349;SDS011;2697;42.144;24.794;2023-05-10T01:37:03;9.27;;;5.83;;
5349;SDS011;2697;42.144;24.794;2023-05-10T01:42:07;15.17;;;8.90;;
5349;SDS011;2697;42.144;24.794;2023-05-10T01:50:02;14.40;;;7.37;;
5349;SDS011;2697;42.144;24.794;2023-05-10T01:52:33;22.93;;;7.77;;
5349;SDS011;2697;42.144;24.794;2023-05-10T01:55:06;17.23;;;9.10;;
5349;SDS011;2697;42.144;24.794;2023-05-10T01:57:36;16.77;;;7.80;;
5349;SDS011;2697;42.144;24.794;2023-05-10T02:00:06;19.03;;;8.43;;
5349;SDS011;2697;42.144;24.794;2023-05-10T02:02:36;8.40;;;5.97;;
5349;SDS011;2697;42.144;24.794;2023-05-10T02:05:04;8.60;;;5.63;;
5349;SDS011;2697;42.144;24.794;2023-05-10T02:07:32;21.33;;;8.57;;
5349;SDS011;2697;42.144;24.794;2023-05-10T02:10:00;15.23;;;8.10;;
5349;SDS011;2697;42.144;24.794;2023-05-10T02:12:27;19.13;;;8.53;;
5349;SDS011;2697;42.144;24.794;2023-05-10T02:14:54;16.70;;;7.00;;
5349;SDS011;2697;42.144;24.794;2023-05-10T02:17:20;16.57;;;7.57;;
5349;SDS011;2697;42.144;24.794;2023-05-10T02:19:46;13.43;;;7.57;;
5349;SDS011;2697;42.144;24.794;2023-05-10T02:22:12;14.83;;;7.23;;
5349;SDS011;2697;42.144;24.794;2023-05-10T02:24:40;18.67;;;7.90;;
5349;SDS011;2697;42.144;24.794;2023-05-10T02:27:07;16.60;;;8.50;;
5349;SDS011;2697;42.144;24.794;2023-05-10T02:29:35;16.60;;;8.87;;
5349;SDS011;2697;42.144;24.794;2023-05-10T02:32:01;15.37;;;7.97;;
5349;SDS011;2697;42.144;24.794;2023-05-10T02:34:27;15.30;;;8.30;;
5349;SDS011;2697;42.144;24.794;2023-05-10T02:36:54;21.20;;;9.67;;
5349;SDS011;2697;42.144;24.794;2023-05-10T02:39:21;19.70;;;9.17;;
5349;SDS011;2697;42.144;24.794;2023-05-10T02:41:48;13.57;;;8.10;;
5349;SDS011;2697;42.144;24.794;2023-05-10T02:44:15;19.37;;;7.57;;
5349;SDS011;2697;42.144;24.794;2023-05-10T02:46:45;15.47;;;7.07;;
5349;SDS011;2697;42.144;24.794;2023-05-10T02:49:11;12.57;;;6.90;;
5349;SDS011;2697;42.144;24.794;2023-05-10T02:51:39;22.83;;;8.60;;
5349;SDS011;2697;42.144;24.794;2023-05-10T02:54:08;11.60;;;7.20;;
5349;SDS011;2697;42.144;24.794;2023-05-10T02:56:42;13.93;;;7.80;;
5349;SDS011;2697;42.144;24.794;2023-05-10T02:59:12;12.30;;;8.00;;
5349;SDS011;2697;42.144;24.794;2023-05-10T03:01:37;13.30;;;7.07;;
5349;SDS011;2697;42.144;24.794;2023-05-10T03:04:03;14.87;;;8.17;;
5349;SDS011;2697;42.144;24.794;2023-05-10T03:06:28;10.57;;;6.67;;
5349;SDS011;2697;42.144;24.794;2023-05-10T03:08:54;16.33;;;8.10;;
5349;SDS011;2697;42.144;24.794;2023-05-10T03:19:45;17.10;;;9.00;;
5349;SDS011;2697;42.144;24.794;2023-05-10T03:22:17;37.77;;;8.10;;
5349;SDS011;2697;42.144;24.794;2023-05-10T03:24:53;10.43;;;6.47;;
5349;SDS011;2697;42.144;24.794;2023-05-10T03:27:20;10.33;;;6.63;;
5349;SDS011;2697;42.144;24.794;2023-05-10T03:29:47;18.27;;;8.30;;
5349;SDS011;2697;42.144;24.794;2023-05-10T03:32:13;12.83;;;7.07;;
5349;SDS011;2697;42.144;24.794;2023-05-10T03:34:42;12.13;;;6.83;;
5349;SDS011;2697;42.144;24.794;2023-05-10T03:37:08;12.40;;;7.50;;
5349;SDS011;2697;42.144;24.794;2023-05-10T03:39:34;17.27;;;9.13;;
5349;SDS011;2697;42.144;24.794;2023-05-10T03:41:59;8.00;;;5.93;;
5349;SDS011;2697;42.144;24.794;2023-05-10T03:44:24;26.90;;;8.10;;
5349;SDS011;2697;42.144;24.794;2023-05-10T03:46:50;19.97;;;8.77;;
5349;SDS011;2697;42.144;24.794;2023-05-10T03:49:15;16.43;;;7.30;;
5349;SDS011;2697;42.144;24.794;2023-05-10T03:51:40;17.07;;;8.00;;
5349;SDS011;2697;42.144;24.794;2023-05-10T03:54:06;10.43;;;7.40;;
5349;SDS011;2697;42.144;24.794;2023-05-10T03:56:31;21.80;;;10.13;;
5349;SDS011;2697;42.144;24.794;2023-05-10T03:58:57;12.33;;;8.30;;
5349;SDS011;2697;42.144;24.794;2023-05-10T04:01:23;33.03;;;7.93;;
5349;SDS011;2697;42.144;24.794;2023-05-10T04:03:48;15.23;;;8.40;;
5349;SDS011;2697;42.144;24.794;2023-05-10T04:06:14;13.03;;;7.50;;
5349;SDS011;2697;42.144;24.794;2023-05-10T04:08:39;12.70;;;7.50;;
5349;SDS011;2697;42.144;24.794;2023-05-10T04:11:05;10.33;;;7.00;;
5349;SDS011;2697;42.144;24.794;2023-05-10T04:13:35;17.30;;;7.87;;
5349;SDS011;2697;42.144;24.794;2023-05-10T04:16:00;19.53;;;6.77;;
5349;SDS011;2697;42.144;24.794;2023-05-10T04:18:26;16.83;;;6.40;;
5349;SDS011;2697;42.144;24.794;2023-05-10T04:20:51;11.43;;;6.33;;
5349;SDS011;2697;42.144;24.794;2023-05-10T04:23:17;10.90;;;7.40;;
5349;SDS011;2697;42.144;24.794;2023-05-10T04:25:42;14.07;;;7.20;;
5349;SDS011;2697;42.144;24.794;2023-05-10T04:28:07;11.73;;;7.70;;
5349;SDS011;2697;42.144;24.794;2023-05-10T04:30:33;15.40;;;7.27;;
5349;SDS011;2697;42.144;24.794;2023-05-10T04:32:59;15.97;;;8.90;;
5349;SDS011;2697;42.144;24.794;2023-05-10T04:35:24;11.87;;;6.13;;
5349;SDS011;2697;42.144;24.794;2023-05-10T04:37:50;13.07;;;7.87;;
5349;SDS011;2697;42.144;24.794;2023-05-10T04:40:15;18.90;;;7.20;;
5349;SDS011;2697;42.144;24.794;2023-05-10T04:42:41;12.53;;;7.40;;
5349;SDS011;2697;42.144;24.794;2023-05-10T04:45:06;11.97;;;7.10;;
5349;SDS011;2697;42.144;24.794;2023-05-10T04:47:32;18.80;;;6.70;;
5349;SDS011;2697;42.144;24.794;2023-05-10T04:49:57;15.00;;;4.63;;
5349;SDS011;2697;42.144;24.794;2023-05-10T04:52:23;9.93;;;5.00;;
5349;SDS011;2697;42.144;24.794;2023-05-10T04:54:49;17.80;;;5.43;;
5349;SDS011;2697;42.144;24.794;2023-05-10T04:57:14;8.47;;;5.50;;
5349;SDS011;2697;42.144;24.794;2023-05-10T04:59:40;11.03;;;5.00;;
5349;SDS011;2697;42.144;24.794;2023-05-10T05:02:05;10.53;;;6.00;;
5349;SDS011;2697;42.144;24.794;2023-05-10T05:04:30;10.93;;;5.60;;
5349;SDS011;2697;42.144;24.794;2023-05-10T05:06:56;17.43;;;5.73;;
5349;SDS011;2697;42.144;24.794;2023-05-10T05:09:22;9.47;;;5.63;;
5349;SDS011;2697;42.144;24.794;2023-05-10T05:11:47;11.00;;;5.90;;
5349;SDS011;2697;42.144;24.794;2023-05-10T05:14:12;14.30;;;5.10;;
5349;SDS011;2697;42.144;24.794;2023-05-10T05:16:38;11.60;;;4.90;;
5349;SDS011;2697;42.144;24.794;2023-05-10T05:19:03;9.40;;;3.87;;
5349;SDS011;2697;42.144;24.794;2023-05-10T05:21:28;9.80;;;4.97;;
5349;SDS011;2697;42.144;24.794;2023-05-10T05:23:54;7.10;;;4.70;;
5349;SDS011;2697;42.144;24.794;2023-05-10T05:26:19;7.10;;;4.77;;
5349;SDS011;2697;42.144;24.794;2023-05-10T05:28:45;13.07;;;5.60;;
5349;SDS011;2697;42.144;24.794;2023-05-10T05:31:10;23.73;;;5.53;;
5349;SDS011;2697;42.144;24.794;2023-05-10T05:33:36;20.67;;;5.50;;
5349;SDS011;2697;42.144;24.794;2023-05-10T05:36:05;12.70;;;6.10;;
5349;SDS011;2697;42.144;24.794;2023-05-10T05:38:31;11.67;;;4.93;;
5349;SDS011;2697;42.144;24.794;2023-05-10T05:40:57;8.50;;;5.30;;
5349;SDS011;2697;42.144;24.794;2023-05-10T05:43:22;17.47;;;5.73;;
5349;SDS011;2697;42.144;24.794;2023-05-10T05:45:47;16.80;;;5.83;;
5349;SDS011;2697;42.144;24.794;2023-05-10T05:48:13;10.23;;;5.43;;
5349;SDS011;2697;42.144;24.794;2023-05-10T05:50:38;17.63;;;5.90;;
5349;SDS011;2697;42.144;24.794;2023-05-10T05:53:04;9.07;;;4.83;;
5349;SDS011;2697;42.144;24.794;2023-05-10T05:55:29;8.03;;;5.33;;
5349;SDS011;2697;42.144;24.794;2023-05-10T05:57:56;6.03;;;2.80;;
5349;SDS011;2697;42.144;24.794;2023-05-10T06:00:22;9.00;;;3.83;;
5349;SDS011;2697;42.144;24.794;2023-05-10T06:02:47;14.23;;;4.00;;
5349;SDS011;2697;42.144;24.794;2023-05-10T06:05:13;8.83;;;4.20;;
5349;SDS011;2697;42.144;24.794;2023-05-10T06:07:39;6.30;;;3.80;;
5349;SDS011;2697;42.144;24.794;2023-05-10T06:10:07;4.90;;;3.40;;
5349;SDS011;2697;42.144;24.794;2023-05-10T06:12:33;13.20;;;4.93;;
5349;SDS011;2697;42.144;24.794;2023-05-10T06:14:58;13.07;;;5.17;;
5349;SDS011;2697;42.144;24.794;2023-05-10T06:17:23;17.87;;;5.63;;
5349;SDS011;2697;42.144;24.794;2023-05-10T06:19:49;6.53;;;4.47;;
5349;SDS011;2697;42.144;24.794;2023-05-10T06:22:14;10.60;;;4.50;;
5349;SDS011;2697;42.144;24.794;2023-05-10T06:24:40;6.70;;;4.80;;
5349;SDS011;2697;42.144;24.794;2023-05-10T06:27:05;22.43;;;5.40;;
5349;SDS011;2697;42.144;24.794;2023-05-10T06:29:31;14.37;;;4.13;;
5349;SDS011;2697;42.144;24.794;2023-05-10T06:31:56;16.83;;;4.70;;
5349;SDS011;2697;42.144;24.794;2023-05-10T06:34:21;12.60;;;4.10;;
5349;SDS011;2697;42.144;24.794;2023-05-10T06:36:47;6.53;;;4.17;;
5349;SDS011;2697;42.144;24.794;2023-05-10T06:39:12;21.73;;;5.30;;
5349;SDS011;2697;42.144;24.794;2023-05-10T06:41:37;5.40;;;3.33;;
5349;SDS011;2697;42.144;24.794;2023-05-10T06:44:03;14.30;;;5.30;;
5349;SDS011;2697;42.144;24.794;2023-05-10T06:46:29;14.13;;;4.53;;
5349;SDS011;2697;42.144;24.794;2023-05-10T06:48:54;12.07;;;4.20;;
5349;SDS011;2697;42.144;24.794;2023-05-10T06:51:19;10.50;;;4.50;;
5349;SDS011;2697;42.144;24.794;2023-05-10T06:53:46;7.00;;;4.37;;
5349;SDS011;2697;42.144;24.794;2023-05-10T06:56:12;7.47;;;4.60;;
5349;SDS011;2697;42.144;24.794;2023-05-10T06:58:37;7.93;;;3.80;;
5349;SDS011;2697;42.144;24.794;2023-05-10T07:01:03;10.53;;;4.73;;
5349;SDS011;2697;42.144;24.794;2023-05-10T07:03:29;5.50;;;3.53;;
5349;SDS011;2697;42.144;24.794;2023-05-10T07:05:59;5.73;;;2.90;;
5349;SDS011;2697;42.144;24.794;2023-05-10T07:08:31;5.63;;;3.60;;
5349;SDS011;2697;42.144;24.794;2023-05-10T07:11:04;10.07;;;4.20;;
5349;SDS011;2697;42.144;24.794;2023-05-10T07:13:32;8.00;;;3.57;;
5349;SDS011;2697;42.144;24.794;2023-05-10T07:15:59;6.83;;;3.73;;
5349;SDS011;2697;42.144;24.794;2023-05-10T07:18:25;6.60;;;3.60;;
5349;SDS011;2697;42.144;24.794;2023-05-10T07:20:51;6.63;;;3.97;;
5349;SDS011;2697;42.144;24.794;2023-05-10T07:23:17;10.43;;;4.87;;
5349;SDS011;2697;42.144;24.794;2023-05-10T07:25:46;9.60;;;4.60;;
5349;SDS011;2697;42.144;24.794;2023-05-10T07:28:13;6.90;;;3.40;;
5349;SDS011;2697;42.144;24.794;2023-05-10T07:30:39;18.77;;;5.10;;
5349;SDS011;2697;42.144;24.794;2023-05-10T07:33:04;16.13;;;4.10;;
5349;SDS011;2697;42.144;24.794;2023-05-10T07:35:30;9.30;;;3.43;;
5349;SDS011;2697;42.144;24.794;2023-05-10T07:37:55;11.43;;;3.77;;
5349;SDS011;2697;42.144;24.794;2023-05-10T07:40:21;14.10;;;3.83;;
5349;SDS011;2697;42.144;24.794;2023-05-10T07:42:46;10.63;;;3.97;;
5349;SDS011;2697;42.144;24.794;2023-05-10T07:45:12;6.20;;;3.80;;
5349;SDS011;2697;42.144;24.794;2023-05-10T07:47:37;12.10;;;3.60;;
5349;SDS011;2697;42.144;24.794;2023-05-10T07:50:03;10.90;;;4.23;;
5349;SDS011;2697;42.144;24.794;2023-05-10T07:52:30;5.67;;;3.57;;
5349;SDS011;2697;42.144;24.794;2023-05-10T07:54:55;8.07;;;3.57;;
5349;SDS011;2697;42.144;24.794;2023-05-10T07:57:21;7.63;;;3.20;;
5349;SDS011;2697;42.144;24.794;2023-05-10T07:59:47;10.53;;;3.53;;
5349;SDS011;2697;42.144;24.794;2023-05-10T08:02:12;42.43;;;3.47;;
5349;SDS011;2697;42.144;24.794;2023-05-10T08:04:38;7.73;;;3.53;;
5349;SDS011;2697;42.144;24.794;2023-05-10T08:07:03;8.10;;;4.00;;
5349;SDS011;2697;42.144;24.794;2023-05-10T08:09:28;8.37;;;3.77;;
5349;SDS011;2697;42.144;24.794;2023-05-10T08:11:54;6.70;;;3.60;;
5349;SDS011;2697;42.144;24.794;2023-05-10T08:14:20;9.53;;;3.53;;
5349;SDS011;2697;42.144;24.794;2023-05-10T08:16:45;7.80;;;3.47;;
5349;SDS011;2697;42.144;24.794;2023-05-10T08:19:10;5.30;;;3.20;;
5349;SDS011;2697;42.144;24.794;2023-05-10T08:21:36;10.80;;;3.60;;
5349;SDS011;2697;42.144;24.794;2023-05-10T08:24:01;6.20;;;2.33;;
5349;SDS011;2697;42.144;24.794;2023-05-10T08:26:27;11.30;;;2.70;;
5349;SDS011;2697;42.144;24.794;2023-05-10T08:28:52;12.10;;;4.00;;
5349;SDS011;2697;42.144;24.794;2023-05-10T08:31:18;6.53;;;2.70;;
5349;SDS011;2697;42.144;24.794;2023-05-10T08:33:43;11.63;;;2.77;;
5349;SDS011;2697;42.144;24.794;2023-05-10T08:36:09;5.73;;;2.63;;
5349;SDS011;2697;42.144;24.794;2023-05-10T08:38:34;2.13;;;1.87;;
5349;SDS011;2697;42.144;24.794;2023-05-10T08:41:00;9.33;;;2.77;;
5349;SDS011;2697;42.144;24.794;2023-05-10T08:43:27;8.67;;;2.97;;
5349;SDS011;2697;42.144;24.794;2023-05-10T08:45:56;4.03;;;2.93;;
5349;SDS011;2697;42.144;24.794;2023-05-10T08:48:25;5.13;;;3.80;;
5349;SDS011;2697;42.144;24.794;2023-05-10T08:50:53;26.63;;;3.83;;
5349;SDS011;2697;42.144;24.794;2023-05-10T08:53:22;10.20;;;3.40;;
5349;SDS011;2697;42.144;24.794;2023-05-10T08:55:50;7.87;;;4.20;;
5349;SDS011;2697;42.144;24.794;2023-05-10T08:58:16;7.30;;;3.17;;
5349;SDS011;2697;42.144;24.794;2023-05-10T09:00:44;31.33;;;4.40;;
5349;SDS011;2697;42.144;24.794;2023-05-10T09:03:10;13.63;;;4.00;;
5349;SDS011;2697;42.144;24.794;2023-05-10T09:05:36;12.63;;;3.87;;
5349;SDS011;2697;42.144;24.794;2023-05-10T09:08:02;8.90;;;3.30;;
5349;SDS011;2697;42.144;24.794;2023-05-10T09:10:28;4.57;;;2.27;;
5349;SDS011;2697;42.144;24.794;2023-05-10T09:12:57;13.93;;;4.60;;
5349;SDS011;2697;42.144;24.794;2023-05-10T09:15:23;17.30;;;4.40;;
5349;SDS011;2697;42.144;24.794;2023-05-10T09:17:49;3.53;;;2.40;;
5349;SDS011;2697;42.144;24.794;2023-05-10T09:20:14;7.63;;;3.07;;
5349;SDS011;2697;42.144;24.794;2023-05-10T09:22:40;5.73;;;2.83;;
5349;SDS011;2697;42.144;24.794;2023-05-10T09:27:32;16.40;;;4.07;;
5349;SDS011;2697;42.144;24.794;2023-05-10T09:29:58;7.53;;;3.77;;
5349;SDS011;2697;42.144;24.794;2023-05-10T09:32:39;8.03;;;3.77;;
5349;SDS011;2697;42.144;24.794;2023-05-10T09:35:15;5.70;;;3.57;;
5349;SDS011;2697;42.144;24.794;2023-05-10T09:37:43;15.13;;;4.40;;
5349;SDS011;2697;42.144;24.794;2023-05-10T09:40:11;10.03;;;3.67;;
5349;SDS011;2697;42.144;24.794;2023-05-10T09:42:51;8.30;;;2.20;;
5349;SDS011;2697;42.144;24.794;2023-05-10T09:45:24;5.27;;;2.83;;
5349;SDS011;2697;42.144;24.794;2023-05-10T09:47:51;5.87;;;2.90;;
5349;SDS011;2697;42.144;24.794;2023-05-10T09:50:17;4.73;;;3.53;;
5349;SDS011;2697;42.144;24.794;2023-05-10T09:53:01;12.37;;;3.37;;
5349;SDS011;2697;42.144;24.794;2023-05-10T09:58:06;4.37;;;3.00;;
5349;SDS011;2697;42.144;24.794;2023-05-10T10:00:38;5.80;;;3.10;;
5349;SDS011;2697;42.144;24.794;2023-05-10T10:03:18;2.67;;;2.23;;
5349;SDS011;2697;42.144;24.794;2023-05-10T10:05:47;9.10;;;2.93;;
5349;SDS011;2697;42.144;24.794;2023-05-10T10:08:14;5.80;;;3.23;;
5349;SDS011;2697;42.144;24.794;2023-05-10T10:10:40;8.43;;;4.10;;
5349;SDS011;2697;42.144;24.794;2023-05-10T10:13:06;4.73;;;3.17;;
5349;SDS011;2697;42.144;24.794;2023-05-10T10:15:33;6.53;;;3.07;;
5349;SDS011;2697;42.144;24.794;2023-05-10T10:17:59;4.63;;;2.83;;
5349;SDS011;2697;42.144;24.794;2023-05-10T10:20:25;11.03;;;3.10;;
5349;SDS011;2697;42.144;24.794;2023-05-10T10:22:51;9.23;;;3.60;;
5349;SDS011;2697;42.144;24.794;2023-05-10T10:25:17;8.37;;;4.07;;
5349;SDS011;2697;42.144;24.794;2023-05-10T10:27:49;9.87;;;2.67;;
5349;SDS011;2697;42.144;24.794;2023-05-10T10:30:43;4.70;;;3.17;;
5349;SDS011;2697;42.144;24.794;2023-05-10T10:36:20;5.40;;;3.30;;
5349;SDS011;2697;42.144;24.794;2023-05-10T10:41:26;8.00;;;3.33;;
5349;SDS011;2697;42.144;24.794;2023-05-10T10:47:11;2.40;;;2.20;;
5349;SDS011;2697;42.144;24.794;2023-05-10T10:50:08;4.87;;;3.97;;
5349;SDS011;2697;42.144;24.794;2023-05-10T10:57:52;5.73;;;3.30;;
5349;SDS011;2697;42.144;24.794;2023-05-10T11:00:31;5.77;;;3.83;;
5349;SDS011;2697;42.144;24.794;2023-05-10T11:03:04;7.03;;;3.90;;
5349;SDS011;2697;42.144;24.794;2023-05-10T11:05:46;4.30;;;3.60;;
5349;SDS011;2697;42.144;24.794;2023-05-10T11:14:02;9.47;;;4.83;;
5349;SDS011;2697;42.144;24.794;2023-05-10T11:16:27;5.13;;;3.47;;
5349;SDS011;2697;42.144;24.794;2023-05-10T11:19:03;3.73;;;3.33;;
5349;SDS011;2697;42.144;24.794;2023-05-10T11:21:44;3.97;;;3.30;;
5349;SDS011;2697;42.144;24.794;2023-05-10T11:24:19;4.80;;;4.00;;
5349;SDS011;2697;42.144;24.794;2023-05-10T11:26:45;8.37;;;3.43;;
5349;SDS011;2697;42.144;24.794;2023-05-10T11:29:12;5.40;;;3.53;;
5349;SDS011;2697;42.144;24.794;2023-05-10T11:31:44;6.30;;;4.07;;
5349;SDS011;2697;42.144;24.794;2023-05-10T11:34:10;6.00;;;3.20;;
5349;SDS011;2697;42.144;24.794;2023-05-10T11:36:36;3.77;;;2.83;;
5349;SDS011;2697;42.144;24.794;2023-05-10T11:39:02;5.57;;;2.77;;
5349;SDS011;2697;42.144;24.794;2023-05-10T11:41:29;10.70;;;3.47;;
5349;SDS011;2697;42.144;24.794;2023-05-10T11:43:55;3.73;;;3.20;;
5349;SDS011;2697;42.144;24.794;2023-05-10T11:46:22;3.23;;;2.93;;
5349;SDS011;2697;42.144;24.794;2023-05-10T11:48:51;5.63;;;4.23;;
5349;SDS011;2697;42.144;24.794;2023-05-10T11:51:21;8.43;;;4.60;;
5349;SDS011;2697;42.144;24.794;2023-05-10T11:53:48;4.23;;;3.67;;
5349;SDS011;2697;42.144;24.794;2023-05-10T11:56:15;4.53;;;4.10;;
5349;SDS011;2697;42.144;24.794;2023-05-10T11:58:40;6.50;;;3.87;;
5349;SDS011;2697;42.144;24.794;2023-05-10T12:01:06;2.90;;;2.70;;
5349;SDS011;2697;42.144;24.794;2023-05-10T12:03:34;6.13;;;3.43;;
5349;SDS011;2697;42.144;24.794;2023-05-10T12:06:00;3.00;;;2.70;;
5349;SDS011;2697;42.144;24.794;2023-05-10T12:08:26;8.30;;;3.53;;
5349;SDS011;2697;42.144;24.794;2023-05-10T12:10:54;5.80;;;4.20;;
5349;SDS011;2697;42.144;24.794;2023-05-10T12:13:29;5.83;;;3.67;;
5349;SDS011;2697;42.144;24.794;2023-05-10T12:15:57;5.73;;;4.00;;
5349;SDS011;2697;42.144;24.794;2023-05-10T12:18:23;28.17;;;4.00;;
5349;SDS011;2697;42.144;24.794;2023-05-10T12:20:51;3.77;;;3.47;;
5349;SDS011;2697;42.144;24.794;2023-05-10T12:23:17;5.87;;;4.67;;
5349;SDS011;2697;42.144;24.794;2023-05-10T12:25:44;7.03;;;3.50;;
5349;SDS011;2697;42.144;24.794;2023-05-10T12:28:10;5.47;;;4.30;;
5349;SDS011;2697;42.144;24.794;2023-05-10T12:30:36;8.53;;;3.50;;
5349;SDS011;2697;42.144;24.794;2023-05-10T12:33:02;8.73;;;3.47;;
5349;SDS011;2697;42.144;24.794;2023-05-10T12:38:27;4.70;;;2.83;;
5349;SDS011;2697;42.144;24.794;2023-05-10T12:40:54;5.10;;;4.20;;
5349;SDS011;2697;42.144;24.794;2023-05-10T12:43:20;25.63;;;7.30;;
5349;SDS011;2697;42.144;24.794;2023-05-10T12:45:46;8.80;;;5.37;;
5349;SDS011;2697;42.144;24.794;2023-05-10T12:48:13;6.00;;;4.80;;
5349;SDS011;2697;42.144;24.794;2023-05-10T12:50:39;10.27;;;5.87;;
5349;SDS011;2697;42.144;24.794;2023-05-10T12:53:05;5.23;;;4.73;;
5349;SDS011;2697;42.144;24.794;2023-05-10T12:55:30;6.47;;;4.70;;
5349;SDS011;2697;42.144;24.794;2023-05-10T12:57:56;12.03;;;5.77;;
5349;SDS011;2697;42.144;24.794;2023-05-10T13:00:21;10.23;;;4.33;;
5349;SDS011;2697;42.144;24.794;2023-05-10T13:02:47;5.30;;;4.60;;
5349;SDS011;2697;42.144;24.794;2023-05-10T13:05:12;16.23;;;5.57;;
5349;SDS011;2697;42.144;24.794;2023-05-10T13:07:38;9.07;;;3.47;;
5349;SDS011;2697;42.144;24.794;2023-05-10T13:10:04;5.50;;;4.40;;
5349;SDS011;2697;42.144;24.794;2023-05-10T13:12:31;7.60;;;3.70;;
5349;SDS011;2697;42.144;24.794;2023-05-10T13:14:56;17.87;;;4.17;;
5349;SDS011;2697;42.144;24.794;2023-05-10T13:17:22;16.57;;;6.27;;
5349;SDS011;2697;42.144;24.794;2023-05-10T13:19:47;7.70;;;4.10;;
5349;SDS011;2697;42.144;24.794;2023-05-10T13:22:13;7.90;;;3.97;;
5349;SDS011;2697;42.144;24.794;2023-05-10T13:24:38;7.00;;;5.53;;
5349;SDS011;2697;42.144;24.794;2023-05-10T13:27:03;6.23;;;4.73;;
5349;SDS011;2697;42.144;24.794;2023-05-10T13:29:29;5.23;;;4.60;;
5349;SDS011;2697;42.144;24.794;2023-05-10T13:31:54;10.43;;;4.50;;
5349;SDS011;2697;42.144;24.794;2023-05-10T13:34:19;5.90;;;5.07;;
5349;SDS011;2697;42.144;24.794;2023-05-10T13:36:45;9.23;;;5.90;;
5349;SDS011;2697;42.144;24.794;2023-05-10T13:39:11;9.03;;;5.37;;
5349;SDS011;2697;42.144;24.794;2023-05-10T13:41:37;8.60;;;5.93;;
5349;SDS011;2697;42.144;24.794;2023-05-10T13:44:02;9.67;;;6.03;;
5349;SDS011;2697;42.144;24.794;2023-05-10T13:46:28;11.07;;;7.17;;
5349;SDS011;2697;42.144;24.794;2023-05-10T13:48:55;7.30;;;6.07;;
5349;SDS011;2697;42.144;24.794;2023-05-10T13:51:21;6.07;;;4.53;;
5349;SDS011;2697;42.144;24.794;2023-05-10T13:53:47;7.80;;;5.50;;
5349;SDS011;2697;42.144;24.794;2023-05-10T13:59:02;10.60;;;6.43;;
5349;SDS011;2697;42.144;24.794;2023-05-10T14:01:27;8.20;;;6.20;;
5349;SDS011;2697;42.144;24.794;2023-05-10T14:03:53;8.67;;;6.43;;
5349;SDS011;2697;42.144;24.794;2023-05-10T14:06:18;10.77;;;5.50;;
5349;SDS011;2697;42.144;24.794;2023-05-10T14:08:43;10.17;;;5.00;;
5349;SDS011;2697;42.144;24.794;2023-05-10T14:11:09;10.57;;;4.90;;
5349;SDS011;2697;42.144;24.794;2023-05-10T14:13:35;5.90;;;4.80;;
5349;SDS011;2697;42.144;24.794;2023-05-10T14:16:00;6.00;;;5.37;;
5349;SDS011;2697;42.144;24.794;2023-05-10T14:18:28;11.67;;;5.97;;
5349;SDS011;2697;42.144;24.794;2023-05-10T14:20:54;12.80;;;5.20;;
5349;SDS011;2697;42.144;24.794;2023-05-10T14:23:21;9.90;;;5.10;;
5349;SDS011;2697;42.144;24.794;2023-05-10T14:25:49;10.57;;;6.20;;
5349;SDS011;2697;42.144;24.794;2023-05-10T14:28:17;11.87;;;4.33;;
5349;SDS011;2697;42.144;24.794;2023-05-10T14:30:43;7.37;;;5.40;;
5349;SDS011;2697;42.144;24.794;2023-05-10T14:33:09;6.67;;;4.13;;
5349;SDS011;2697;42.144;24.794;2023-05-10T14:35:35;4.97;;;3.77;;
5349;SDS011;2697;42.144;24.794;2023-05-10T14:38:01;7.13;;;3.50;;
5349;SDS011;2697;42.144;24.794;2023-05-10T14:40:28;5.23;;;2.63;;
5349;SDS011;2697;42.144;24.794;2023-05-10T14:42:53;3.33;;;2.80;;
5349;SDS011;2697;42.144;24.794;2023-05-10T14:45:19;8.07;;;3.67;;
5349;SDS011;2697;42.144;24.794;2023-05-10T14:47:46;5.13;;;3.63;;
5349;SDS011;2697;42.144;24.794;2023-05-10T14:50:11;4.90;;;3.70;;
5349;SDS011;2697;42.144;24.794;2023-05-10T14:55:58;5.83;;;4.30;;
5349;SDS011;2697;42.144;24.794;2023-05-10T14:58:26;8.50;;;4.90;;
5349;SDS011;2697;42.144;24.794;2023-05-10T15:00:51;5.73;;;4.10;;
5349;SDS011;2697;42.144;24.794;2023-05-10T15:03:17;5.03;;;3.17;;
5349;SDS011;2697;42.144;24.794;2023-05-10T15:05:42;9.90;;;3.70;;
5349;SDS011;2697;42.144;24.794;2023-05-10T15:08:08;4.33;;;3.23;;
5349;SDS011;2697;42.144;24.794;2023-05-10T15:10:34;8.97;;;4.43;;
5349;SDS011;2697;42.144;24.794;2023-05-10T15:13:00;7.23;;;5.87;;
5349;SDS011;2697;42.144;24.794;2023-05-10T15:15:25;8.23;;;2.83;;
5349;SDS011;2697;42.144;24.794;2023-05-10T15:17:51;6.40;;;4.03;;
5349;SDS011;2697;42.144;24.794;2023-05-10T15:20:16;7.77;;;5.13;;
5349;SDS011;2697;42.144;24.794;2023-05-10T15:22:42;9.90;;;5.00;;
5349;SDS011;2697;42.144;24.794;2023-05-10T15:25:07;5.43;;;4.27;;
5349;SDS011;2697;42.144;24.794;2023-05-10T15:27:33;16.33;;;4.30;;
5349;SDS011;2697;42.144;24.794;2023-05-10T15:29:58;6.40;;;4.23;;
5349;SDS011;2697;42.144;24.794;2023-05-10T15:32:24;4.47;;;3.97;;
5349;SDS011;2697;42.144;24.794;2023-05-10T15:34:50;4.67;;;3.87;;
5349;SDS011;2697;42.144;24.794;2023-05-10T15:37:16;5.13;;;4.30;;
5349;SDS011;2697;42.144;24.794;2023-05-10T15:39:41;18.87;;;4.07;;
5349;SDS011;2697;42.144;24.794;2023-05-10T15:42:06;6.03;;;4.60;;
5349;SDS011;2697;42.144;24.794;2023-05-10T15:44:32;10.60;;;4.20;;
5349;SDS011;2697;42.144;24.794;2023-05-10T15:46:59;9.47;;;4.80;;
5349;SDS011;2697;42.144;24.794;2023-05-10T15:49:26;10.90;;;5.00;;
5349;SDS011;2697;42.144;24.794;2023-05-10T15:51:51;10.23;;;5.03;;
5349;SDS011;2697;42.144;24.794;2023-05-10T15:54:16;7.30;;;4.63;;